Time;durP1;ratioP1;P1;durP2;ratioP2;P2;SDS_P1;SDS_P2;PMS_P1;PMS_P2;Temp;Humidity;BMP_temperature;BMP_pressure;BME280_temperature;BME280_humidity;BME280_pressure;Samples;Min_cycle;Max_cycle;Signal;HPM_P1;HPM_P2
2022/01/30 00:02:06;;;;;;;33.47;6.70;;;6.40;79.80;;;;;;4988947;28;20632;-91
2022/01/30 00:04:32;;;;;;;37.10;7.80;;;6.30;80.40;;;;;;5003981;28;20519;-91
2022/01/30 00:06:57;;;;;;;45.90;10.70;;;6.30;80.50;;;;;;4987288;28;20261;-92
2022/01/30 00:09:23;;;;;;;43.87;7.93;;;6.30;80.60;;;;;;4985806;28;20173;-92
2022/01/30 00:11:57;;;;;;;49.87;8.47;;;6.30;80.30;;;;;;4989001;28;20205;-91
2022/01/30 00:14:25;;;;;;;36.90;7.83;;;6.30;79.60;;;;;;4990346;28;20214;-91
2022/01/30 00:16:58;;;;;;;35.67;7.93;;;6.30;79.00;;;;;;4985692;28;20181;-89
2022/01/30 00:19:40;;;;;;;40.47;7.97;;;6.20;79.40;;;;;;5010623;28;20154;-91
2022/01/30 00:22:47;;;;;;;30.07;8.23;;;6.30;78.60;;;;;;4989928;28;20252;-92
2022/01/30 00:28:02;;;;;;;36.17;8.63;;;6.30;79.10;;;;;;5007822;28;20192;-92
2022/01/30 00:30:33;;;;;;;35.50;7.33;;;6.20;79.10;;;;;;4992852;28;20682;-92
2022/01/30 00:32:59;;;;;;;55.17;9.63;;;6.30;79.00;;;;;;5009066;28;20227;-92
2022/01/30 00:35:25;;;;;;;42.93;9.83;;;6.30;78.90;;;;;;4993918;28;20576;-90
2022/01/30 00:37:50;;;;;;;55.83;10.43;;;6.30;78.80;;;;;;4985154;28;20181;-92
2022/01/30 00:40:16;;;;;;;28.63;6.10;;;6.30;78.60;;;;;;4996826;28;20205;-92
2022/01/30 00:42:42;;;;;;;48.33;8.80;;;6.30;78.30;;;;;;5012116;28;20541;-92
2022/01/30 00:45:13;;;;;;;48.60;8.47;;;6.30;77.70;;;;;;4991107;28;20188;-93
2022/01/30 00:47:38;;;;;;;60.23;10.57;;;6.40;77.20;;;;;;5010445;28;20181;-92
2022/01/30 00:50:11;;;;;;;36.97;9.07;;;6.30;78.10;;;;;;4986200;28;20248;-92
2022/01/30 00:52:39;;;;;;;49.33;9.43;;;6.10;80.40;;;;;;4990452;28;20184;-91
2022/01/30 00:55:08;;;;;;;41.27;7.20;;;5.90;82.60;;;;;;4999178;28;20631;-91
2022/01/30 00:57:39;;;;;;;35.10;6.33;;;5.50;84.30;;;;;;4983959;28;20214;-93
2022/01/30 01:00:06;;;;;;;15.57;4.77;;;5.30;85.50;;;;;;4983251;28;20198;-91
2022/01/30 01:02:32;;;;;;;19.77;5.07;;;5.20;85.20;;;;;;5001766;28;20198;-91
2022/01/30 01:05:04;;;;;;;27.03;5.60;;;5.30;83.80;;;;;;4985797;28;20181;-91
2022/01/30 01:07:32;;;;;;;34.13;6.53;;;5.30;83.70;;;;;;4988847;28;20185;-92
2022/01/30 01:10:55;;;;;;;36.50;7.33;;;5.20;83.90;;;;;;4991155;28;20283;-91
2022/01/30 01:23:41;;;;;;;41.63;7.90;;;5.80;82.40;;;;;;5007521;28;20172;-92
2022/01/30 01:26:10;;;;;;;39.43;5.63;;;5.70;83.00;;;;;;5006195;28;20257;-91
2022/01/30 01:28:57;;;;;;;37.43;7.27;;;5.60;84.40;;;;;;4992368;28;20197;-91
2022/01/30 01:31:29;;;;;;;43.07;8.07;;;5.60;84.20;;;;;;4994321;28;20217;-92
2022/01/30 01:36:42;;;;;;;37.60;7.17;;;5.60;84.70;;;;;;5012350;28;20172;-91
2022/01/30 01:39:11;;;;;;;35.83;7.27;;;5.50;85.30;;;;;;4988626;28;20180;-92
2022/01/30 01:41:47;;;;;;;44.50;6.73;;;5.60;85.20;;;;;;5003503;28;20191;-92
2022/01/30 01:44:19;;;;;;;43.97;9.17;;;5.60;85.20;;;;;;5004935;28;20170;-92
2022/01/30 01:46:46;;;;;;;49.87;10.97;;;5.70;84.70;;;;;;5003018;28;20173;-90
2022/01/30 01:49:34;;;;;;;26.10;7.80;;;5.80;83.50;;;;;;4992411;28;20180;-91
2022/01/30 01:54:58;;;;;;;41.07;9.30;;;5.80;83.40;;;;;;5008651;28;20197;-91
2022/01/30 01:57:30;;;;;;;40.30;7.83;;;5.90;82.50;;;;;;4992001;28;20177;-91
2022/01/30 01:59:56;;;;;;;36.00;6.73;;;5.90;81.60;;;;;;4992465;28;20173;-91
2022/01/30 02:02:30;;;;;;;29.93;6.50;;;5.80;80.90;;;;;;4994976;28;20177;-93
2022/01/30 02:05:23;;;;;;;31.97;6.90;;;5.80;81.10;;;;;;5012446;28;20164;-93
2022/01/30 02:08:24;;;;;;;;;;;;;;;;;;;;;
2022/01/30 02:25:07;;;;;;;35.47;7.20;;;5.70;79.40;;;;;;5012582;28;20176;-92
2022/01/30 02:27:36;;;;;;;21.03;5.53;;;5.70;79.30;;;;;;4991559;28;20227;-91
2022/01/30 02:30:20;;;;;;;36.10;6.87;;;5.60;78.50;;;;;;4992379;28;20199;-92
2022/01/30 02:32:50;;;;;;;29.87;6.33;;;5.50;77.80;;;;;;5009527;28;20193;-92
2022/01/30 02:35:18;;;;;;;20.87;5.47;;;5.50;78.10;;;;;;4993048;28;20175;-91
2022/01/30 02:37:44;;;;;;;38.37;6.50;;;5.50;77.80;;;;;;5014887;28;20175;-92
2022/01/30 02:40:12;;;;;;;30.50;5.93;;;5.40;78.00;;;;;;5013581;28;20197;-92
2022/01/30 02:42:49;;;;;;;35.50;8.80;;;5.40;78.80;;;;;;4995202;28;20308;-92
2022/01/30 02:45:16;;;;;;;51.33;7.27;;;5.50;79.60;;;;;;4993790;28;20154;-92
2022/01/30 02:47:56;;;;;;;51.17;8.53;;;5.40;80.40;;;;;;4987182;28;20192;-92
2022/01/30 02:50:35;;;;;;;47.57;8.73;;;5.50;80.50;;;;;;5004843;28;20186;-92
2022/01/30 02:53:04;;;;;;;45.13;7.77;;;5.50;80.80;;;;;;4993024;28;20219;-92
2022/01/30 02:55:32;;;;;;;39.57;8.20;;;5.60;80.10;;;;;;4992794;28;20212;-92
2022/01/30 02:57:58;;;;;;;22.80;6.13;;;5.50;79.90;;;;;;4996175;28;20168;-92
2022/01/30 03:00:27;;;;;;;46.23;9.97;;;5.70;79.20;;;;;;5011208;28;20204;-92
2022/01/30 03:03:02;;;;;;;41.43;8.73;;;5.70;79.00;;;;;;4985326;28;20177;-92
2022/01/30 03:05:27;;;;;;;49.10;8.53;;;5.70;79.00;;;;;;4991551;28;20167;-92
2022/01/30 03:08:14;;;;;;;45.33;8.43;;;5.60;78.50;;;;;;5011180;28;20259;-92
2022/01/30 03:10:40;;;;;;;40.13;7.30;;;5.60;78.10;;;;;;4995873;28;20194;-92
2022/01/30 03:13:06;;;;;;;37.83;8.43;;;5.50;78.20;;;;;;4990540;28;20219;-92
2022/01/30 03:15:38;;;;;;;38.50;8.83;;;5.50;77.10;;;;;;4996484;28;20206;-92
2022/01/30 03:18:03;;;;;;;43.00;8.30;;;5.50;77.30;;;;;;5008294;28;20182;-92
2022/01/30 03:20:35;;;;;;;39.43;8.50;;;5.60;76.30;;;;;;4996004;28;20199;-93
2022/01/30 03:23:02;;;;;;;39.90;7.77;;;5.60;76.70;;;;;;5012153;28;20167;-92
2022/01/30 03:25:33;;;;;;;34.67;6.87;;;5.50;77.20;;;;;;4995089;28;20182;-92
2022/01/30 03:28:00;;;;;;;43.27;9.53;;;5.60;76.90;;;;;;4992481;28;20181;-91
2022/01/30 03:30:29;;;;;;;33.97;7.30;;;5.70;77.20;;;;;;4997429;28;20201;-91
2022/01/30 03:32:55;;;;;;;32.23;5.80;;;5.60;78.20;;;;;;5014383;28;20184;-92
2022/01/30 03:35:24;;;;;;;41.27;7.57;;;5.50;79.10;;;;;;4997641;28;20191;-91
2022/01/30 03:37:50;;;;;;;36.10;7.53;;;5.40;79.80;;;;;;4991593;28;20183;-91
2022/01/30 03:40:19;;;;;;;31.70;6.37;;;5.50;79.00;;;;;;4995849;28;20207;-91
2022/01/30 03:42:44;;;;;;;22.40;6.17;;;5.50;79.10;;;;;;4991426;28;20255;-92
2022/01/30 03:45:10;;;;;;;30.10;5.93;;;5.40;79.00;;;;;;4996112;28;20175;-92
2022/01/30 03:47:36;;;;;;;36.20;6.70;;;5.30;79.30;;;;;;4990478;28;20189;-91
2022/01/30 03:50:02;;;;;;;42.03;7.77;;;5.20;79.00;;;;;;5010384;28;20217;-92
2022/01/30 03:52:27;;;;;;;45.83;8.23;;;5.20;79.30;;;;;;5010736;28;20656;-91
2022/01/30 03:54:59;;;;;;;43.53;5.80;;;5.10;79.50;;;;;;4992902;28;20210;-92
2022/01/30 03:57:24;;;;;;;33.03;8.03;;;5.20;79.40;;;;;;4993134;28;20186;-92
2022/01/30 03:59:53;;;;;;;31.40;6.90;;;5.30;78.50;;;;;;4989315;28;20183;-92
2022/01/30 04:02:21;;;;;;;39.60;7.17;;;5.30;78.60;;;;;;4992956;28;20195;-92
2022/01/30 04:04:50;;;;;;;36.13;7.83;;;5.30;78.50;;;;;;4990237;28;20278;-92
2022/01/30 04:07:19;;;;;;;28.83;6.10;;;5.40;77.90;;;;;;4990286;28;20279;-92
2022/01/30 04:09:45;;;;;;;40.30;8.03;;;5.50;77.30;;;;;;5008213;28;20174;-92
2022/01/30 04:12:13;;;;;;;46.93;8.67;;;5.60;76.90;;;;;;4993226;28;20183;-92
2022/01/30 04:14:50;;;;;;;46.33;9.00;;;5.40;77.90;;;;;;4989464;28;20205;-92
2022/01/30 04:17:19;;;;;;;38.70;7.30;;;5.50;77.70;;;;;;4987467;28;20183;-92
2022/01/30 04:19:51;;;;;;;52.30;8.90;;;5.60;76.60;;;;;;4991265;28;20546;-92
2022/01/30 04:22:16;;;;;;;40.50;7.33;;;5.60;76.20;;;;;;4990728;28;20191;-91
2022/01/30 04:24:45;;;;;;;31.77;6.90;;;5.70;75.60;;;;;;4991433;28;20184;-92
2022/01/30 04:27:10;;;;;;;36.37;7.47;;;5.80;75.00;;;;;;4991186;28;20189;-91
2022/01/30 04:29:44;;;;;;;38.20;8.67;;;5.80;75.00;;;;;;5010456;28;20183;-93
2022/01/30 04:32:12;;;;;;;43.53;7.47;;;5.80;75.90;;;;;;4993614;28;20658;-91
2022/01/30 04:34:39;;;;;;;44.47;8.50;;;5.80;76.20;;;;;;5007420;28;20228;-91
2022/01/30 04:37:12;;;;;;;42.37;8.13;;;5.80;76.30;;;;;;5004675;28;20176;-91
2022/01/30 04:54:12;;;;;;;38.93;8.40;;;5.80;76.60;;;;;;5008235;28;20273;-92
2022/01/30 05:05:05;;;;;;;48.90;10.80;;;5.60;77.90;;;;;;4967642;29;20331;-91
2022/01/30 05:07:41;;;;;;;61.40;10.30;;;5.50;78.40;;;;;;5002755;28;20235;-92
2022/01/30 05:10:07;;;;;;;30.03;8.07;;;5.60;77.90;;;;;;5006913;28;20247;-91
2022/01/30 05:12:49;;;;;;;44.20;9.30;;;5.70;77.20;;;;;;4987760;28;20604;-91
2022/01/30 05:15:20;;;;;;;32.40;6.90;;;5.70;77.10;;;;;;4988629;28;20179;-93
2022/01/30 05:17:46;;;;;;;36.37;7.83;;;5.70;76.20;;;;;;5005309;28;20192;-92
2022/01/30 05:20:12;;;;;;;48.13;9.43;;;5.60;77.20;;;;;;5006769;28;20204;-92
2022/01/30 05:23:04;;;;;;;47.63;9.70;;;5.60;76.90;;;;;;5009087;28;20180;-92
2022/01/30 05:28:34;;;;;;;34.70;6.20;;;5.60;77.00;;;;;;5003745;28;20548;-93
2022/01/30 05:31:06;;;;;;;28.83;6.43;;;5.50;77.90;;;;;;4990214;28;20200;-92
2022/01/30 05:33:35;;;;;;;45.40;7.60;;;5.50;77.50;;;;;;5008289;28;20567;-92
2022/01/30 05:36:02;;;;;;;42.80;8.43;;;5.50;77.40;;;;;;4988988;28;20184;-91
2022/01/30 05:38:34;;;;;;;32.10;6.80;;;5.40;77.60;;;;;;4988876;28;20187;-91
2022/01/30 05:41:09;;;;;;;42.30;9.97;;;5.40;77.70;;;;;;4989571;28;20247;-93
2022/01/30 05:43:46;;;;;;;39.27;7.57;;;5.40;78.40;;;;;;4989596;28;20630;-93
2022/01/30 05:46:29;;;;;;;54.00;9.77;;;5.50;78.10;;;;;;4991173;28;20163;-92
2022/01/30 05:49:06;;;;;;;50.53;9.17;;;5.30;78.80;;;;;;4996483;28;20183;-92
2022/01/30 05:51:32;;;;;;;52.90;10.80;;;5.40;78.80;;;;;;5086023;23;20256;-92
2022/01/30 05:54:00;;;;;;;50.33;8.47;;;5.50;79.00;;;;;;5011218;28;20265;-91
2022/01/30 05:56:33;;;;;;;40.70;7.73;;;5.40;78.90;;;;;;5008327;28;20183;-92
2022/01/30 05:58:59;;;;;;;32.67;7.00;;;5.40;78.90;;;;;;5010699;28;20170;-91
2022/01/30 06:01:28;;;;;;;51.00;7.30;;;5.40;79.20;;;;;;4995827;28;20221;-92
2022/01/30 06:04:11;;;;;;;48.23;7.50;;;5.40;79.90;;;;;;4990636;28;20168;-92
2022/01/30 06:06:36;;;;;;;31.73;4.93;;;5.20;82.10;;;;;;4991913;28;20176;-92
2022/01/30 06:10:02;;;;;;;36.47;8.10;;;5.20;82.40;;;;;;4993798;28;20242;-92
2022/01/30 06:11:57;;;;;;;45.80;8.47;;;5.00;82.90;;;;;;5001392;28;20231;-91
2022/01/30 06:14:23;;;;;;;53.23;9.43;;;5.00;83.40;;;;;;5006545;28;20210;-92
2022/01/30 06:16:55;;;;;;;53.63;9.50;;;5.10;83.10;;;;;;5006695;28;20195;-91
2022/01/30 06:19:25;;;;;;;48.50;10.67;;;5.20;83.20;;;;;;5010129;28;20166;-91
2022/01/30 06:21:51;;;;;;;57.57;10.77;;;5.30;83.20;;;;;;4991072;28;20261;-91
2022/01/30 06:24:16;;;;;;;30.43;6.30;;;5.30;83.10;;;;;;4991768;28;20196;-91
2022/01/30 06:26:54;;;;;;;51.50;10.00;;;5.30;83.20;;;;;;4991408;28;20174;-92
2022/01/30 06:29:22;;;;;;;47.63;9.40;;;5.30;83.10;;;;;;4990862;28;20178;-91
2022/01/30 06:31:59;;;;;;;45.40;8.27;;;5.30;82.40;;;;;;5007697;28;20253;-92
2022/01/30 06:34:26;;;;;;;38.63;8.47;;;5.30;82.40;;;;;;5007912;28;20254;-91
2022/01/30 06:36:52;;;;;;;30.30;6.60;;;5.40;81.20;;;;;;4995162;28;20777;-91
2022/01/30 06:39:34;;;;;;;42.37;7.80;;;5.40;80.60;;;;;;4990730;28;20186;-93
2022/01/30 06:41:59;;;;;;;25.77;6.83;;;5.40;79.60;;;;;;4991635;28;20193;-94
2022/01/30 06:44:32;;;;;;;35.73;7.00;;;5.30;79.90;;;;;;4993380;28;20180;-95
2022/01/30 06:46:57;;;;;;;30.77;6.50;;;5.30;80.20;;;;;;4991606;28;20262;-94
2022/01/30 06:49:23;;;;;;;28.27;5.77;;;5.10;81.30;;;;;;4993856;28;20184;-94
2022/01/30 06:51:57;;;;;;;43.20;7.07;;;5.20;81.20;;;;;;4997347;28;20248;-94
2022/01/30 06:54:23;;;;;;;53.77;10.80;;;5.10;81.40;;;;;;5000591;28;20222;-90
2022/01/30 06:56:48;;;;;;;31.80;7.43;;;5.10;81.50;;;;;;4986580;28;20182;-92
2022/01/30 06:59:30;;;;;;;37.77;8.17;;;5.10;81.70;;;;;;4999764;28;20266;-95
2022/01/30 07:01:57;;;;;;;48.03;8.47;;;5.00;82.20;;;;;;4996675;28;20193;-93
2022/01/30 07:04:30;;;;;;;47.63;9.43;;;5.10;82.40;;;;;;4999157;28;20160;-93
2022/01/30 07:07:03;;;;;;;41.57;7.90;;;5.10;82.60;;;;;;4997071;28;20167;-93
2022/01/30 07:09:46;;;;;;;61.97;11.20;;;5.20;82.20;;;;;;4998204;28;20184;-94
2022/01/30 07:12:12;;;;;;;35.17;8.17;;;5.20;81.40;;;;;;5013956;28;20156;-94
2022/01/30 07:14:49;;;;;;;25.83;6.37;;;5.20;80.90;;;;;;4999131;28;20223;-91
2022/01/30 07:17:17;;;;;;;59.27;10.90;;;5.20;80.70;;;;;;5012022;28;20145;-94
2022/01/30 07:27:36;;;;;;;50.33;11.03;;;5.30;77.90;;;;;;2584582;22;20225;-91
2022/01/30 07:30:11;;;;;;;55.97;9.83;;;5.30;77.10;;;;;;5036469;28;20559;-92
2022/01/30 07:33:11;;;;;;;46.83;9.27;;;5.30;76.70;;;;;;5050693;28;20180;-91
2022/01/30 07:35:40;;;;;;;22.13;6.37;;;5.40;76.60;;;;;;5058938;28;20177;-92
2022/01/30 07:38:13;;;;;;;48.40;9.27;;;5.40;76.50;;;;;;5057627;28;20154;-92
2022/01/30 07:40:48;;;;;;;55.63;10.00;;;5.50;76.10;;;;;;5057016;28;20212;-92
2022/01/30 07:43:16;;;;;;;57.70;10.63;;;5.60;75.40;;;;;;5055313;28;20154;-92
2022/01/30 07:45:48;;;;;;;43.07;8.97;;;5.60;74.90;;;;;;5056381;28;20254;-92
2022/01/30 07:48:28;;;;;;;48.90;9.50;;;5.50;75.80;;;;;;5057902;28;20189;-93
2022/01/30 07:50:57;;;;;;;49.10;8.37;;;5.50;76.10;;;;;;5059000;28;20200;-92
2022/01/30 07:53:23;;;;;;;50.83;8.50;;;5.50;75.40;;;;;;5057110;28;20218;-92
2022/01/30 07:59:13;;;;;;;53.70;10.13;;;5.50;75.50;;;;;;5032991;28;20183;-92
2022/01/30 08:01:46;;;;;;;49.30;10.23;;;5.50;75.80;;;;;;5062512;28;20209;-92
2022/01/30 08:04:38;;;;;;;50.13;8.37;;;5.50;76.30;;;;;;5059238;28;20179;-91
2022/01/30 08:08:11;;;;;;;42.50;7.47;;;5.50;75.50;;;;;;5344996;23;20228;-93
2022/01/30 08:29:23;;;;;;;46.23;8.43;;;5.50;70.00;;;;;;5033028;28;20723;-92
2022/01/30 08:32:04;;;;;;;47.50;8.63;;;5.50;70.40;;;;;;5018152;28;20247;-92
2022/01/30 08:34:36;;;;;;;37.93;7.57;;;5.50;69.60;;;;;;5036500;28;20204;-92
2022/01/30 08:37:19;;;;;;;53.67;10.10;;;5.50;69.90;;;;;;5035605;28;20171;-92
2022/01/30 08:40:06;;;;;;;41.93;8.90;;;5.40;70.40;;;;;;5036578;28;20167;-93
2022/01/30 08:42:35;;;;;;;52.97;9.33;;;5.50;70.80;;;;;;5038464;28;20180;-92
2022/01/30 08:58:07;;;;;;;60.17;10.67;;;5.70;71.40;;;;;;1274302;22;20672;-93
2022/01/30 09:52:26;;;;;;;57.60;11.50;;;6.00;71.00;;;;;;2900301;22;20263;-93
2022/01/30 10:02:38;;;;;;;55.87;10.23;;;6.10;72.40;;;;;;5024304;28;20193;-92
2022/01/30 10:08:44;;;;;;;51.20;8.97;;;6.20;72.00;;;;;;5215943;22;20260;-92
2022/01/30 10:11:50;;;;;;;49.20;9.47;;;6.20;71.70;;;;;;4974273;28;20209;-93
2022/01/30 10:14:18;;;;;;;49.67;11.03;;;6.20;71.60;;;;;;4976156;28;20217;-94
2022/01/30 10:16:53;;;;;;;45.50;9.00;;;6.20;71.40;;;;;;4974148;28;20186;-94
2022/01/30 10:19:25;;;;;;;44.63;9.97;;;6.30;72.10;;;;;;4979687;28;20194;-93
2022/01/30 11:09:32;;;;;;;55.70;9.50;;;6.70;69.20;;;;;;4205929;22;20236;-91
2022/01/30 11:12:11;;;;;;;56.00;8.97;;;6.50;68.70;;;;;;5037740;28;20192;-91
2022/01/30 11:14:51;;;;;;;56.67;10.00;;;6.50;68.50;;;;;;5038402;28;20225;-92
2022/01/30 11:19:58;;;;;;;56.50;10.27;;;6.60;68.10;;;;;;5514502;22;20243;-93
2022/01/30 11:43:09;;;;;;;50.00;9.17;;;6.70;71.40;;;;;;926343;22;20527;-89
2022/01/30 11:46:11;;;;;;;49.57;9.10;;;6.60;69.60;;;;;;5021964;28;20514;-89
2022/01/30 11:48:54;;;;;;;45.57;8.43;;;6.70;69.70;;;;;;5042826;28;20176;-92
2022/01/30 12:17:39;;;;;;;43.43;9.00;;;6.60;69.90;;;;;;4159129;22;20238;-91
2022/01/30 12:20:05;;;;;;;49.43;8.90;;;6.60;70.10;;;;;;5080698;23;20226;-89
2022/01/30 12:22:31;;;;;;;39.33;8.27;;;6.50;69.60;;;;;;4978284;28;20269;-90
2022/01/30 12:29:21;;;;;;;51.57;10.60;;;6.40;69.60;;;;;;4937085;29;20237;-91
2022/01/30 12:32:07;;;;;;;45.00;7.63;;;6.50;70.30;;;;;;4835964;29;20871;-92
2022/01/30 12:34:33;;;;;;;48.17;8.40;;;6.50;70.30;;;;;;4988985;28;20221;-90
2022/01/30 12:40:38;;;;;;;;;;;;;;;;;;;;;
2022/01/30 12:46:09;;;;;;;48.17;8.77;;;6.40;70.80;;;;;;4952159;29;20202;-92
2022/01/30 12:48:36;;;;;;;55.03;9.07;;;6.40;70.30;;;;;;4958154;28;20171;-92
2022/01/30 12:51:22;;;;;;;38.87;7.90;;;6.60;70.10;;;;;;4966213;28;20209;-91
2022/01/30 13:10:25;;;;;;;29.27;6.93;;;6.80;64.50;;;;;;5007899;28;20210;-93
2022/01/30 13:13:56;;;;;;;;;;;;;;;;;;;;;
2022/01/30 13:21:14;;;;;;;33.77;6.37;;;6.70;64.40;;;;;;4952459;23;20203;-91
2022/01/30 13:27:49;;;;;;;39.63;6.40;;;6.70;65.20;;;;;;4943611;28;20282;-93
2022/01/30 14:11:43;;;;;;;39.50;6.83;;;6.00;69.30;;;;;;5000730;28;20296;-93
2022/01/30 14:14:25;;;;;;;42.03;6.60;;;6.00;68.90;;;;;;4985887;28;20656;-93
2022/01/30 14:17:14;;;;;;;32.63;6.43;;;6.10;68.70;;;;;;4990507;28;20185;-93
2022/01/30 14:19:51;;;;;;;40.93;7.10;;;6.00;68.90;;;;;;4992880;28;20192;-92
2022/01/30 14:23:40;;;;;;;29.10;6.03;;;6.00;69.20;;;;;;5011492;28;20189;-92
2022/01/30 14:26:32;;;;;;;33.40;6.67;;;6.00;69.90;;;;;;4895959;29;20190;-93
2022/01/30 14:29:20;;;;;;;43.47;6.43;;;5.90;69.60;;;;;;4952268;28;20252;-93
2022/01/30 14:32:22;;;;;;;27.00;6.17;;;6.00;70.40;;;;;;4949384;29;20242;-92
2022/01/30 14:34:53;;;;;;;35.77;6.83;;;5.90;70.80;;;;;;4895249;29;20205;-92
2022/01/30 14:37:56;;;;;;;49.13;6.90;;;6.00;71.30;;;;;;4979325;28;20189;-92
2022/01/30 14:41:34;;;;;;;35.63;7.43;;;5.90;70.70;;;;;;4945278;29;20251;-92
2022/01/30 14:43:46;;;;;;;33.07;6.63;;;5.80;71.80;;;;;;4974433;28;20255;-92
2022/01/30 14:46:24;;;;;;;31.70;6.53;;;5.80;72.70;;;;;;5000336;28;20211;-92
2022/01/30 14:52:40;;;;;;;25.53;5.23;;;5.80;74.00;;;;;;5057342;23;20594;-91
2022/01/30 14:55:06;;;;;;;40.53;7.43;;;5.80;74.20;;;;;;5046484;28;20215;-92
2022/01/30 14:57:38;;;;;;;33.60;6.43;;;5.80;74.20;;;;;;5028596;28;20297;-92
2022/01/30 15:00:56;;;;;;;49.90;7.63;;;5.70;74.20;;;;;;5021184;28;20264;-91
2022/01/30 15:03:52;;;;;;;44.40;7.37;;;5.70;74.40;;;;;;4913544;29;20264;-92
2022/01/30 15:06:43;;;;;;;35.67;6.30;;;5.70;75.00;;;;;;4912044;29;20202;-92
2022/01/30 15:09:17;;;;;;;30.57;6.90;;;5.60;74.50;;;;;;4932026;29;20191;-92
2022/01/30 15:11:45;;;;;;;38.73;6.40;;;5.70;74.40;;;;;;4908635;29;20625;-92
2022/01/30 15:14:41;;;;;;;40.27;6.67;;;5.70;74.20;;;;;;4910273;29;20212;-92
2022/01/30 15:56:30;;;;;;;31.33;6.00;;;5.50;70.50;;;;;;1260012;23;20485;-89
2022/01/30 15:58:56;;;;;;;32.60;6.43;;;5.40;71.60;;;;;;5001057;28;20207;-91
2022/01/30 16:01:33;;;;;;;40.80;6.67;;;5.40;72.10;;;;;;4999561;28;20199;-90
2022/01/30 16:04:17;;;;;;;39.13;6.27;;;5.40;72.90;;;;;;5002823;28;20198;-92
2022/01/30 16:06:52;;;;;;;40.27;7.83;;;5.30;73.80;;;;;;5005675;28;20621;-92
2022/01/30 16:09:21;;;;;;;54.57;7.63;;;5.30;73.60;;;;;;5004754;28;20186;-91
2022/01/30 16:17:53;;;;;;;33.43;6.97;;;5.30;74.60;;;;;;5032343;28;20639;-92
2022/01/30 16:20:27;;;;;;;43.67;6.67;;;5.20;74.60;;;;;;5016609;28;20202;-92
2022/01/30 16:23:11;;;;;;;30.77;5.80;;;5.30;74.10;;;;;;5018674;28;20187;-92
2022/01/30 16:25:53;;;;;;;36.03;6.50;;;5.20;74.30;;;;;;5016397;28;20652;-92
2022/01/30 16:28:34;;;;;;;33.70;5.80;;;5.30;73.40;;;;;;5014749;28;20164;-92
2022/01/30 16:31:03;;;;;;;30.07;6.67;;;5.30;73.60;;;;;;5014956;28;20179;-93
2022/01/30 16:33:28;;;;;;;23.17;5.30;;;5.30;73.30;;;;;;5008172;28;20540;-92
2022/01/30 16:35:54;;;;;;;33.13;5.60;;;5.20;73.70;;;;;;5002854;28;20184;-92
2022/01/30 16:38:23;;;;;;;27.83;6.20;;;5.20;73.00;;;;;;5004988;28;20281;-92
2022/01/30 16:40:55;;;;;;;27.87;6.40;;;5.20;72.80;;;;;;5006626;28;20207;-91
2022/01/30 16:43:59;;;;;;;38.17;6.67;;;5.20;72.60;;;;;;5005583;28;20688;-92
2022/01/30 16:49:27;;;;;;;34.13;5.93;;;5.20;72.80;;;;;;5023804;28;20179;-93
2022/01/30 16:52:03;;;;;;;34.47;4.73;;;5.10;72.90;;;;;;5014294;28;20211;-92
2022/01/30 16:54:44;;;;;;;27.77;6.00;;;5.10;72.50;;;;;;5013782;28;20250;-92
2022/01/30 17:17:47;;;;;;;31.43;6.10;;;5.10;71.10;;;;;;4993784;28;20236;-89
2022/01/30 17:20:13;;;;;;;18.40;4.77;;;5.00;71.20;;;;;;4977514;28;20663;-89
2022/01/30 17:22:38;;;;;;;26.83;5.10;;;5.00;71.80;;;;;;4977957;28;20202;-91
2022/01/30 17:27:41;;;;;;;33.57;5.63;;;5.00;71.50;;;;;;5224613;23;20603;-90
2022/01/30 17:30:07;;;;;;;27.07;5.70;;;5.00;71.80;;;;;;4994602;28;20197;-91
2022/01/30 17:32:33;;;;;;;16.30;3.77;;;5.00;71.40;;;;;;4980981;28;20215;-91
2022/01/30 17:38:10;;;;;;;24.23;4.47;;;5.00;71.50;;;;;;5262103;23;20303;-93
2022/01/30 17:40:45;;;;;;;25.33;5.43;;;4.90;72.10;;;;;;5055348;28;20282;-92
2022/01/30 17:43:10;;;;;;;31.47;5.83;;;4.90;71.90;;;;;;5057491;28;20189;-93
2022/01/30 17:46:37;;;;;;;30.83;6.73;;;4.90;72.40;;;;;;5057517;28;20695;-92
2022/01/30 17:49:11;;;;;;;44.43;6.03;;;4.90;73.20;;;;;;4956741;29;20725;-92
2022/01/30 17:51:46;;;;;;;27.47;5.60;;;4.80;74.40;;;;;;4955832;29;20231;-92
2022/01/30 17:54:16;;;;;;;26.23;5.13;;;4.80;74.90;;;;;;4959339;29;20225;-93
2022/01/30 17:57:00;;;;;;;30.53;5.20;;;4.80;75.40;;;;;;4956001;29;20210;-93
2022/01/30 18:02:13;;;;;;;34.13;6.40;;;4.80;75.60;;;;;;5363520;23;20241;-91
2022/01/30 18:04:49;;;;;;;41.53;6.30;;;4.80;76.10;;;;;;5025357;28;20194;-92
2022/01/30 18:09:47;;;;;;;36.70;6.47;;;4.80;77.00;;;;;;4993557;28;20239;-92
2022/01/30 18:12:13;;;;;;;45.23;7.70;;;4.80;77.50;;;;;;4980336;28;20631;-94
2022/01/30 18:14:42;;;;;;;36.37;6.43;;;4.80;77.80;;;;;;4979729;28;20253;-93
2022/01/30 18:17:15;;;;;;;46.77;6.80;;;4.80;78.00;;;;;;4980758;28;20261;-94
2022/01/30 18:19:44;;;;;;;40.17;7.33;;;4.80;79.00;;;;;;4981937;28;20191;-94
2022/01/30 18:22:23;;;;;;;39.07;6.83;;;4.80;79.10;;;;;;4983985;28;20177;-94
2022/01/30 18:24:49;;;;;;;40.03;7.03;;;4.80;79.80;;;;;;4987312;28;20192;-95
2022/01/30 18:27:27;;;;;;;43.03;7.27;;;4.80;79.90;;;;;;4987063;28;20230;-94
2022/01/30 18:29:59;;;;;;;44.37;9.00;;;4.80;80.40;;;;;;4987999;28;20183;-94
2022/01/30 18:32:31;;;;;;;53.90;10.00;;;4.80;80.90;;;;;;4980581;28;20269;-94
2022/01/30 18:34:57;;;;;;;54.97;7.27;;;4.80;81.10;;;;;;4979629;28;20278;-94
2022/01/30 18:37:32;;;;;;;41.43;6.57;;;4.80;81.30;;;;;;4981169;28;20261;-94
2022/01/30 18:40:22;;;;;;;;;;;;;;;;;;;;;
2022/01/30 18:45:46;;;;;;;36.20;7.00;;;4.80;81.60;;;;;;5001506;28;20205;-94
2022/01/30 18:48:21;;;;;;;34.47;7.10;;;4.80;81.80;;;;;;4985130;28;20179;-94
2022/01/30 18:51:00;;;;;;;59.07;8.23;;;4.80;81.60;;;;;;4985384;28;20254;-94
2022/01/30 18:53:28;;;;;;;59.83;10.13;;;4.80;81.40;;;;;;4986099;28;20274;-93
2022/01/30 18:56:00;;;;;;;34.13;6.60;;;4.80;81.60;;;;;;4984952;28;20209;-94
2022/01/30 18:58:29;;;;;;;38.83;7.30;;;4.80;81.40;;;;;;4984571;28;20184;-94
2022/01/30 19:00:58;;;;;;;46.83;7.30;;;4.80;81.30;;;;;;4985481;28;20291;-93
2022/01/30 19:03:26;;;;;;;42.17;6.63;;;4.80;81.70;;;;;;4984018;28;20187;-92
2022/01/30 19:06:01;;;;;;;37.70;8.77;;;4.80;81.90;;;;;;4981572;28;20186;-94
2022/01/30 19:08:35;;;;;;;47.33;7.20;;;4.80;82.10;;;;;;4982726;28;20249;-94
2022/01/30 19:11:02;;;;;;;41.27;7.70;;;4.80;82.40;;;;;;4980643;28;20277;-92
2022/01/30 19:13:28;;;;;;;51.33;7.37;;;4.70;82.80;;;;;;4979651;28;20226;-91
2022/01/30 19:15:56;;;;;;;45.33;7.43;;;4.70;83.20;;;;;;4997272;28;20199;-92
2022/01/30 19:18:23;;;;;;;33.87;6.60;;;4.70;83.50;;;;;;4997361;28;20225;-91
2022/01/30 19:20:49;;;;;;;58.43;8.47;;;4.60;84.00;;;;;;4997387;28;20191;-92
2022/01/30 19:23:14;;;;;;;46.07;7.10;;;4.70;83.80;;;;;;4980084;28;20176;-92
2022/01/30 19:25:40;;;;;;;50.23;7.53;;;4.60;83.80;;;;;;4979530;28;20573;-92
2022/01/30 19:28:09;;;;;;;33.90;6.53;;;4.60;83.90;;;;;;4997011;28;20183;-92
2022/01/30 19:30:36;;;;;;;44.93;7.10;;;4.60;83.40;;;;;;4997152;28;20245;-92
2022/01/30 19:33:04;;;;;;;37.70;7.63;;;4.70;83.00;;;;;;4979910;28;20651;-92
2022/01/30 19:35:29;;;;;;;49.70;7.20;;;4.60;82.70;;;;;;4979898;28;20207;-92
2022/01/30 19:37:56;;;;;;;46.87;7.70;;;4.70;82.30;;;;;;4980541;28;20662;-92
2022/01/30 19:40:23;;;;;;;36.63;7.37;;;4.60;82.40;;;;;;4996808;28;20192;-92
2022/01/30 19:42:49;;;;;;;47.83;7.47;;;4.70;82.30;;;;;;4979551;28;20544;-92
2022/01/30 19:45:15;;;;;;;40.93;6.70;;;4.70;82.50;;;;;;4996861;28;20254;-93
2022/01/30 19:47:47;;;;;;;50.33;8.13;;;4.60;82.40;;;;;;4979237;28;20271;-92
2022/01/30 19:50:14;;;;;;;38.37;6.77;;;4.70;82.00;;;;;;4979268;28;20203;-89
2022/01/30 19:52:40;;;;;;;36.67;6.80;;;4.70;81.70;;;;;;4979030;28;20191;-92
2022/01/30 19:55:07;;;;;;;41.33;7.20;;;4.60;81.70;;;;;;4980091;28;20194;-92
2022/01/30 19:57:32;;;;;;;35.67;6.87;;;4.60;81.60;;;;;;4996524;28;20199;-92
2022/01/30 19:59:58;;;;;;;40.50;6.57;;;4.60;81.40;;;;;;4978423;28;20638;-91
2022/01/30 20:02:24;;;;;;;38.00;6.97;;;4.60;80.80;;;;;;4978921;28;20175;-91
2022/01/30 20:04:51;;;;;;;36.60;5.70;;;4.60;81.00;;;;;;4978835;28;20183;-92
2022/01/30 20:07:17;;;;;;;43.67;6.90;;;4.60;80.90;;;;;;4996434;28;20699;-92
2022/01/30 20:09:43;;;;;;;40.27;7.43;;;4.60;80.60;;;;;;4978743;28;20206;-92
2022/01/30 20:12:09;;;;;;;33.13;6.77;;;4.60;80.30;;;;;;4996257;28;20262;-92
2022/01/30 20:14:36;;;;;;;45.43;7.37;;;4.60;80.30;;;;;;4979581;28;20546;-92
2022/01/30 20:17:04;;;;;;;38.87;6.17;;;4.60;80.00;;;;;;4980635;28;20183;-93
2022/01/30 20:19:33;;;;;;;35.47;7.13;;;4.60;80.00;;;;;;4981255;28;20179;-92
2022/01/30 20:22:00;;;;;;;39.17;7.63;;;4.60;79.40;;;;;;4980781;28;20200;-93
2022/01/30 20:24:28;;;;;;;27.33;4.93;;;4.60;79.60;;;;;;4982038;28;20186;-92
2022/01/30 20:26:54;;;;;;;41.73;6.90;;;4.60;78.70;;;;;;4979245;28;20265;-93
2022/01/30 20:29:20;;;;;;;36.30;6.57;;;4.60;79.00;;;;;;4979092;28;20207;-93